sensor_id;sensor_type;location;lat;lon;timestamp;P1;durP1;ratioP1;P2;durP2;ratioP2
57635;SDS011;43465;50.728;4.160;2023-08-12T00:01:48;9.38;;;5.95;;
57635;SDS011;43465;50.728;4.160;2023-08-12T00:04:13;11.60;;;5.88;;
57635;SDS011;43465;50.728;4.160;2023-08-12T00:06:40;13.20;;;6.35;;
57635;SDS011;43465;50.728;4.160;2023-08-12T00:09:06;13.80;;;6.30;;
57635;SDS011;43465;50.728;4.160;2023-08-12T00:11:34;13.57;;;6.00;;
57635;SDS011;43465;50.728;4.160;2023-08-12T00:14:00;10.25;;;6.47;;
57635;SDS011;43465;50.728;4.160;2023-08-12T00:16:26;12.77;;;6.60;;
57635;SDS011;43465;50.728;4.160;2023-08-12T00:18:51;11.38;;;6.68;;
57635;SDS011;43465;50.728;4.160;2023-08-12T00:21:17;11.10;;;7.05;;
57635;SDS011;43465;50.728;4.160;2023-08-12T00:23:43;12.40;;;7.05;;
57635;SDS011;43465;50.728;4.160;2023-08-12T00:26:09;14.85;;;7.43;;
57635;SDS011;43465;50.728;4.160;2023-08-12T00:28:35;13.88;;;7.18;;
57635;SDS011;43465;50.728;4.160;2023-08-12T00:31:01;12.88;;;7.18;;
57635;SDS011;43465;50.728;4.160;2023-08-12T00:33:27;12.70;;;7.35;;
57635;SDS011;43465;50.728;4.160;2023-08-12T00:35:53;15.80;;;7.90;;
57635;SDS011;43465;50.728;4.160;2023-08-12T00:38:19;17.17;;;7.35;;
57635;SDS011;43465;50.728;4.160;2023-08-12T00:40:44;11.02;;;7.45;;
57635;SDS011;43465;50.728;4.160;2023-08-12T00:43:10;13.35;;;7.75;;
57635;SDS011;43465;50.728;4.160;2023-08-12T00:45:36;11.27;;;8.15;;
57635;SDS011;43465;50.728;4.160;2023-08-12T00:48:05;14.45;;;9.05;;
57635;SDS011;43465;50.728;4.160;2023-08-12T00:50:32;14.93;;;8.75;;
57635;SDS011;43465;50.728;4.160;2023-08-12T00:52:58;16.75;;;8.43;;
57635;SDS011;43465;50.728;4.160;2023-08-12T00:55:24;11.50;;;8.05;;
57635;SDS011;43465;50.728;4.160;2023-08-12T00:57:50;13.70;;;8.15;;
57635;SDS011;43465;50.728;4.160;2023-08-12T01:00:16;12.75;;;8.05;;
57635;SDS011;43465;50.728;4.160;2023-08-12T01:02:45;16.38;;;8.05;;
57635;SDS011;43465;50.728;4.160;2023-08-12T01:05:13;13.25;;;8.45;;
57635;SDS011;43465;50.728;4.160;2023-08-12T01:07:42;14.75;;;8.25;;
57635;SDS011;43465;50.728;4.160;2023-08-12T01:10:08;11.85;;;7.40;;
57635;SDS011;43465;50.728;4.160;2023-08-12T01:12:59;12.45;;;7.63;;
57635;SDS011;43465;50.728;4.160;2023-08-12T01:15:37;14.20;;;7.97;;
57635;SDS011;43465;50.728;4.160;2023-08-12T01:18:03;14.80;;;8.05;;
57635;SDS011;43465;50.728;4.160;2023-08-12T01:20:31;11.57;;;7.88;;
57635;SDS011;43465;50.728;4.160;2023-08-12T01:23:10;16.83;;;8.15;;
57635;SDS011;43465;50.728;4.160;2023-08-12T01:25:37;16.52;;;7.55;;
57635;SDS011;43465;50.728;4.160;2023-08-12T01:28:02;12.20;;;7.63;;
57635;SDS011;43465;50.728;4.160;2023-08-12T01:30:28;12.05;;;8.30;;
57635;SDS011;43465;50.728;4.160;2023-08-12T01:33:01;15.95;;;8.30;;
57635;SDS011;43465;50.728;4.160;2023-08-12T01:35:38;13.30;;;8.35;;
57635;SDS011;43465;50.728;4.160;2023-08-12T01:38:07;15.68;;;8.30;;
57635;SDS011;43465;50.728;4.160;2023-08-12T01:40:35;13.82;;;7.95;;
57635;SDS011;43465;50.728;4.160;2023-08-12T01:43:02;12.60;;;8.23;;
57635;SDS011;43465;50.728;4.160;2023-08-12T01:45:32;15.23;;;8.68;;
57635;SDS011;43465;50.728;4.160;2023-08-12T01:47:58;15.45;;;8.80;;
57635;SDS011;43465;50.728;4.160;2023-08-12T01:50:24;14.73;;;8.40;;
57635;SDS011;43465;50.728;4.160;2023-08-12T01:52:50;13.30;;;8.52;;
57635;SDS011;43465;50.728;4.160;2023-08-12T01:55:16;17.05;;;9.00;;
57635;SDS011;43465;50.728;4.160;2023-08-12T01:57:42;14.90;;;9.32;;
57635;SDS011;43465;50.728;4.160;2023-08-12T02:00:07;14.25;;;8.40;;
57635;SDS011;43465;50.728;4.160;2023-08-12T02:02:33;15.88;;;8.90;;
57635;SDS011;43465;50.728;4.160;2023-08-12T02:04:59;16.48;;;8.52;;
57635;SDS011;43465;50.728;4.160;2023-08-12T02:07:24;13.35;;;9.15;;
57635;SDS011;43465;50.728;4.160;2023-08-12T02:09:50;15.27;;;8.77;;
57635;SDS011;43465;50.728;4.160;2023-08-12T02:12:16;14.48;;;8.70;;
57635;SDS011;43465;50.728;4.160;2023-08-12T02:14:41;16.48;;;8.93;;
57635;SDS011;43465;50.728;4.160;2023-08-12T02:17:07;16.98;;;8.98;;
57635;SDS011;43465;50.728;4.160;2023-08-12T02:19:33;16.15;;;8.75;;
57635;SDS011;43465;50.728;4.160;2023-08-12T02:22:02;14.40;;;9.13;;
57635;SDS011;43465;50.728;4.160;2023-08-12T02:24:28;18.40;;;9.35;;
57635;SDS011;43465;50.728;4.160;2023-08-12T02:26:54;19.52;;;9.75;;
57635;SDS011;43465;50.728;4.160;2023-08-12T02:29:20;17.65;;;9.68;;
57635;SDS011;43465;50.728;4.160;2023-08-12T02:31:46;18.88;;;10.23;;
57635;SDS011;43465;50.728;4.160;2023-08-12T02:34:11;15.63;;;10.07;;
57635;SDS011;43465;50.728;4.160;2023-08-12T02:36:37;17.33;;;9.90;;
57635;SDS011;43465;50.728;4.160;2023-08-12T02:39:03;20.83;;;9.98;;
57635;SDS011;43465;50.728;4.160;2023-08-12T02:41:29;17.90;;;10.32;;
57635;SDS011;43465;50.728;4.160;2023-08-12T02:43:55;19.30;;;10.75;;
57635;SDS011;43465;50.728;4.160;2023-08-12T02:46:21;14.38;;;10.45;;
57635;SDS011;43465;50.728;4.160;2023-08-12T02:48:47;18.48;;;10.65;;
57635;SDS011;43465;50.728;4.160;2023-08-12T02:51:12;17.17;;;10.80;;
57635;SDS011;43465;50.728;4.160;2023-08-12T02:53:38;20.50;;;11.07;;
57635;SDS011;43465;50.728;4.160;2023-08-12T02:56:04;15.27;;;10.63;;
57635;SDS011;43465;50.728;4.160;2023-08-12T02:58:29;19.75;;;11.05;;
57635;SDS011;43465;50.728;4.160;2023-08-12T03:00:55;18.02;;;10.98;;
57635;SDS011;43465;50.728;4.160;2023-08-12T03:03:21;14.30;;;10.88;;
57635;SDS011;43465;50.728;4.160;2023-08-12T03:05:47;17.67;;;10.98;;
57635;SDS011;43465;50.728;4.160;2023-08-12T03:08:13;17.10;;;10.88;;
57635;SDS011;43465;50.728;4.160;2023-08-12T03:10:39;17.42;;;11.20;;
57635;SDS011;43465;50.728;4.160;2023-08-12T03:13:05;14.88;;;11.25;;
57635;SDS011;43465;50.728;4.160;2023-08-12T03:15:31;16.83;;;11.25;;
57635;SDS011;43465;50.728;4.160;2023-08-12T03:17:57;17.00;;;11.95;;
57635;SDS011;43465;50.728;4.160;2023-08-12T03:20:22;14.68;;;11.88;;
57635;SDS011;43465;50.728;4.160;2023-08-12T03:22:48;20.10;;;13.20;;
57635;SDS011;43465;50.728;4.160;2023-08-12T03:25:14;17.55;;;13.65;;
57635;SDS011;43465;50.728;4.160;2023-08-12T03:27:42;24.05;;;13.65;;
57635;SDS011;43465;50.728;4.160;2023-08-12T03:30:08;18.92;;;12.95;;
57635;SDS011;43465;50.728;4.160;2023-08-12T03:32:34;19.77;;;13.02;;
57635;SDS011;43465;50.728;4.160;2023-08-12T03:35:00;13.07;;;11.80;;
57635;SDS011;43465;50.728;4.160;2023-08-12T03:37:26;14.95;;;10.30;;
57635;SDS011;43465;50.728;4.160;2023-08-12T03:39:51;13.90;;;10.38;;
57635;SDS011;43465;50.728;4.160;2023-08-12T03:42:17;11.38;;;8.13;;
57635;SDS011;43465;50.728;4.160;2023-08-12T03:44:43;10.52;;;8.32;;
57635;SDS011;43465;50.728;4.160;2023-08-12T03:47:09;10.70;;;7.47;;
57635;SDS011;43465;50.728;4.160;2023-08-12T03:49:35;8.07;;;7.28;;
57635;SDS011;43465;50.728;4.160;2023-08-12T03:52:01;8.88;;;7.30;;
57635;SDS011;43465;50.728;4.160;2023-08-12T03:54:28;8.82;;;7.68;;
57635;SDS011;43465;50.728;4.160;2023-08-12T03:56:53;9.55;;;7.13;;
57635;SDS011;43465;50.728;4.160;2023-08-12T03:59:19;8.43;;;7.40;;
57635;SDS011;43465;50.728;4.160;2023-08-12T04:01:45;9.35;;;7.55;;
57635;SDS011;43465;50.728;4.160;2023-08-12T04:04:10;8.43;;;7.10;;
57635;SDS011;43465;50.728;4.160;2023-08-12T04:06:36;9.93;;;7.13;;
57635;SDS011;43465;50.728;4.160;2023-08-12T04:09:03;8.10;;;7.30;;
57635;SDS011;43465;50.728;4.160;2023-08-12T04:11:30;13.00;;;8.18;;
57635;SDS011;43465;50.728;4.160;2023-08-12T04:13:55;8.85;;;7.40;;
57635;SDS011;43465;50.728;4.160;2023-08-12T04:16:21;9.73;;;7.30;;
57635;SDS011;43465;50.728;4.160;2023-08-12T04:18:47;9.50;;;7.22;;
57635;SDS011;43465;50.728;4.160;2023-08-12T04:21:13;9.55;;;7.80;;
57635;SDS011;43465;50.728;4.160;2023-08-12T04:23:39;8.63;;;7.72;;
57635;SDS011;43465;50.728;4.160;2023-08-12T04:26:04;8.68;;;7.85;;
57635;SDS011;43465;50.728;4.160;2023-08-12T04:28:30;8.27;;;7.38;;
57635;SDS011;43465;50.728;4.160;2023-08-12T04:30:55;10.27;;;7.93;;
57635;SDS011;43465;50.728;4.160;2023-08-12T04:33:22;8.27;;;7.47;;
57635;SDS011;43465;50.728;4.160;2023-08-12T04:35:48;12.25;;;7.25;;
57635;SDS011;43465;50.728;4.160;2023-08-12T04:38:14;11.50;;;7.68;;
57635;SDS011;43465;50.728;4.160;2023-08-12T04:40:40;8.85;;;7.95;;
57635;SDS011;43465;50.728;4.160;2023-08-12T04:43:07;12.93;;;7.95;;
57635;SDS011;43465;50.728;4.160;2023-08-12T04:45:33;8.98;;;8.07;;
57635;SDS011;43465;50.728;4.160;2023-08-12T04:47:59;10.93;;;8.40;;
57635;SDS011;43465;50.728;4.160;2023-08-12T04:50:25;9.48;;;7.32;;
57635;SDS011;43465;50.728;4.160;2023-08-12T04:52:54;12.68;;;9.10;;
57635;SDS011;43465;50.728;4.160;2023-08-12T04:55:20;9.35;;;6.93;;
57635;SDS011;43465;50.728;4.160;2023-08-12T04:57:45;8.82;;;7.25;;
57635;SDS011;43465;50.728;4.160;2023-08-12T05:00:11;8.32;;;7.53;;
57635;SDS011;43465;50.728;4.160;2023-08-12T05:02:37;10.20;;;7.70;;
57635;SDS011;43465;50.728;4.160;2023-08-12T05:05:03;11.00;;;8.07;;
57635;SDS011;43465;50.728;4.160;2023-08-12T05:07:30;10.35;;;8.18;;
57635;SDS011;43465;50.728;4.160;2023-08-12T05:09:56;12.20;;;8.73;;
57635;SDS011;43465;50.728;4.160;2023-08-12T05:12:22;10.50;;;8.43;;
57635;SDS011;43465;50.728;4.160;2023-08-12T05:14:47;11.27;;;8.77;;
57635;SDS011;43465;50.728;4.160;2023-08-12T05:17:13;10.57;;;8.18;;
57635;SDS011;43465;50.728;4.160;2023-08-12T05:19:38;10.95;;;8.35;;
57635;SDS011;43465;50.728;4.160;2023-08-12T05:22:04;13.90;;;8.35;;
57635;SDS011;43465;50.728;4.160;2023-08-12T05:24:30;10.80;;;8.70;;
57635;SDS011;43465;50.728;4.160;2023-08-12T05:26:55;11.57;;;8.38;;
57635;SDS011;43465;50.728;4.160;2023-08-12T05:29:21;10.30;;;8.25;;
57635;SDS011;43465;50.728;4.160;2023-08-12T05:31:47;12.02;;;8.27;;
57635;SDS011;43465;50.728;4.160;2023-08-12T05:34:12;9.45;;;7.82;;
57635;SDS011;43465;50.728;4.160;2023-08-12T05:36:38;11.10;;;8.00;;
57635;SDS011;43465;50.728;4.160;2023-08-12T05:39:03;10.07;;;8.20;;
57635;SDS011;43465;50.728;4.160;2023-08-12T05:41:29;14.65;;;7.95;;
57635;SDS011;43465;50.728;4.160;2023-08-12T05:43:55;9.65;;;7.47;;
57635;SDS011;43465;50.728;4.160;2023-08-12T05:46:20;14.60;;;8.32;;
57635;SDS011;43465;50.728;4.160;2023-08-12T05:48:46;9.50;;;7.63;;
57635;SDS011;43465;50.728;4.160;2023-08-12T05:51:12;14.43;;;7.80;;
57635;SDS011;43465;50.728;4.160;2023-08-12T05:53:37;10.98;;;7.82;;
57635;SDS011;43465;50.728;4.160;2023-08-12T05:56:03;11.90;;;7.50;;
57635;SDS011;43465;50.728;4.160;2023-08-12T05:58:29;10.75;;;7.60;;
57635;SDS011;43465;50.728;4.160;2023-08-12T06:00:55;15.75;;;7.88;;
57635;SDS011;43465;50.728;4.160;2023-08-12T06:03:21;8.98;;;6.75;;
57635;SDS011;43465;50.728;4.160;2023-08-12T06:05:47;9.68;;;7.45;;
57635;SDS011;43465;50.728;4.160;2023-08-12T06:08:13;9.80;;;7.07;;
57635;SDS011;43465;50.728;4.160;2023-08-12T06:10:39;7.80;;;6.53;;
57635;SDS011;43465;50.728;4.160;2023-08-12T06:13:04;7.95;;;6.28;;
57635;SDS011;43465;50.728;4.160;2023-08-12T06:15:30;10.05;;;6.55;;
57635;SDS011;43465;50.728;4.160;2023-08-12T06:17:56;9.40;;;6.35;;
57635;SDS011;43465;50.728;4.160;2023-08-12T06:20:25;8.13;;;6.60;;
57635;SDS011;43465;50.728;4.160;2023-08-12T06:22:51;6.88;;;5.25;;
57635;SDS011;43465;50.728;4.160;2023-08-12T06:25:17;6.18;;;5.57;;
57635;SDS011;43465;50.728;4.160;2023-08-12T06:27:43;6.28;;;5.60;;
57635;SDS011;43465;50.728;4.160;2023-08-12T06:30:09;6.18;;;5.55;;
57635;SDS011;43465;50.728;4.160;2023-08-12T06:32:35;6.07;;;5.55;;
57635;SDS011;43465;50.728;4.160;2023-08-12T06:35:01;7.70;;;6.10;;
57635;SDS011;43465;50.728;4.160;2023-08-12T06:37:27;6.28;;;5.07;;
57635;SDS011;43465;50.728;4.160;2023-08-12T06:39:52;8.25;;;5.07;;
57635;SDS011;43465;50.728;4.160;2023-08-12T06:42:18;6.07;;;4.60;;
57635;SDS011;43465;50.728;4.160;2023-08-12T06:44:45;4.82;;;3.53;;
57635;SDS011;43465;50.728;4.160;2023-08-12T06:47:10;3.70;;;2.35;;
57635;SDS011;43465;50.728;4.160;2023-08-12T06:49:36;3.35;;;1.90;;
57635;SDS011;43465;50.728;4.160;2023-08-12T06:52:02;2.53;;;2.00;;
57635;SDS011;43465;50.728;4.160;2023-08-12T06:54:28;3.30;;;1.63;;
57635;SDS011;43465;50.728;4.160;2023-08-12T06:56:53;2.80;;;1.45;;
57635;SDS011;43465;50.728;4.160;2023-08-12T06:59:19;2.35;;;1.42;;
57635;SDS011;43465;50.728;4.160;2023-08-12T07:01:44;5.20;;;1.45;;
57635;SDS011;43465;50.728;4.160;2023-08-12T07:04:10;2.60;;;1.17;;
57635;SDS011;43465;50.728;4.160;2023-08-12T07:06:36;3.00;;;1.45;;
57635;SDS011;43465;50.728;4.160;2023-08-12T07:09:01;2.28;;;1.30;;
57635;SDS011;43465;50.728;4.160;2023-08-12T07:11:28;2.88;;;1.30;;
57635;SDS011;43465;50.728;4.160;2023-08-12T07:13:53;2.92;;;1.00;;
57635;SDS011;43465;50.728;4.160;2023-08-12T07:16:19;2.92;;;1.15;;
57635;SDS011;43465;50.728;4.160;2023-08-12T07:18:45;1.38;;;1.10;;
57635;SDS011;43465;50.728;4.160;2023-08-12T07:21:10;5.85;;;1.48;;
57635;SDS011;43465;50.728;4.160;2023-08-12T07:23:36;3.33;;;1.15;;
57635;SDS011;43465;50.728;4.160;2023-08-12T07:26:01;1.75;;;1.10;;
57635;SDS011;43465;50.728;4.160;2023-08-12T07:28:27;1.77;;;0.93;;
57635;SDS011;43465;50.728;4.160;2023-08-12T07:30:53;2.92;;;1.10;;
57635;SDS011;43465;50.728;4.160;2023-08-12T07:33:19;3.33;;;1.42;;
57635;SDS011;43465;50.728;4.160;2023-08-12T07:35:45;4.93;;;1.30;;
57635;SDS011;43465;50.728;4.160;2023-08-12T07:38:11;2.55;;;1.00;;
57635;SDS011;43465;50.728;4.160;2023-08-12T07:40:36;3.47;;;1.10;;
57635;SDS011;43465;50.728;4.160;2023-08-12T07:43:02;2.78;;;1.20;;
57635;SDS011;43465;50.728;4.160;2023-08-12T07:45:28;1.73;;;1.02;;
57635;SDS011;43465;50.728;4.160;2023-08-12T07:47:54;3.33;;;1.10;;
57635;SDS011;43465;50.728;4.160;2023-08-12T07:50:20;2.80;;;1.00;;
57635;SDS011;43465;50.728;4.160;2023-08-12T07:52:46;2.78;;;1.10;;
57635;SDS011;43465;50.728;4.160;2023-08-12T07:55:11;1.23;;;1.00;;
57635;SDS011;43465;50.728;4.160;2023-08-12T07:57:37;3.53;;;1.15;;
57635;SDS011;43465;50.728;4.160;2023-08-12T08:00:03;1.75;;;0.98;;
57635;SDS011;43465;50.728;4.160;2023-08-12T08:02:30;2.92;;;1.25;;
57635;SDS011;43465;50.728;4.160;2023-08-12T08:04:55;2.00;;;1.02;;
57635;SDS011;43465;50.728;4.160;2023-08-12T08:07:21;2.17;;;1.13;;
57635;SDS011;43465;50.728;4.160;2023-08-12T08:09:47;2.63;;;1.33;;
57635;SDS011;43465;50.728;4.160;2023-08-12T08:12:12;3.28;;;1.38;;
57635;SDS011;43465;50.728;4.160;2023-08-12T08:14:38;2.38;;;1.10;;
57635;SDS011;43465;50.728;4.160;2023-08-12T08:17:04;2.30;;;1.20;;
57635;SDS011;43465;50.728;4.160;2023-08-12T08:19:30;2.30;;;1.13;;
57635;SDS011;43465;50.728;4.160;2023-08-12T08:21:56;1.58;;;1.00;;
57635;SDS011;43465;50.728;4.160;2023-08-12T08:24:23;1.40;;;1.20;;
57635;SDS011;43465;50.728;4.160;2023-08-12T08:26:49;3.08;;;1.50;;
57635;SDS011;43465;50.728;4.160;2023-08-12T08:29:14;1.35;;;1.00;;
57635;SDS011;43465;50.728;4.160;2023-08-12T08:31:40;2.15;;;1.23;;
57635;SDS011;43465;50.728;4.160;2023-08-12T08:34:06;2.00;;;1.45;;
57635;SDS011;43465;50.728;4.160;2023-08-12T08:36:31;3.10;;;1.38;;
57635;SDS011;43465;50.728;4.160;2023-08-12T08:38:57;2.90;;;1.50;;
57635;SDS011;43465;50.728;4.160;2023-08-12T08:41:23;1.92;;;1.35;;
57635;SDS011;43465;50.728;4.160;2023-08-12T08:43:49;4.53;;;1.75;;
57635;SDS011;43465;50.728;4.160;2023-08-12T08:46:18;2.60;;;1.70;;
57635;SDS011;43465;50.728;4.160;2023-08-12T08:48:44;3.63;;;1.75;;
57635;SDS011;43465;50.728;4.160;2023-08-12T08:51:11;3.00;;;1.73;;
57635;SDS011;43465;50.728;4.160;2023-08-12T08:53:38;4.18;;;1.58;;
57635;SDS011;43465;50.728;4.160;2023-08-12T08:56:07;2.92;;;1.70;;
57635;SDS011;43465;50.728;4.160;2023-08-12T08:58:36;3.95;;;1.80;;
57635;SDS011;43465;50.728;4.160;2023-08-12T09:01:07;2.78;;;1.40;;
57635;SDS011;43465;50.728;4.160;2023-08-12T09:03:36;4.13;;;1.60;;
57635;SDS011;43465;50.728;4.160;2023-08-12T09:06:03;2.40;;;1.80;;
57635;SDS011;43465;50.728;4.160;2023-08-12T09:08:31;4.00;;;1.90;;
57635;SDS011;43465;50.728;4.160;2023-08-12T09:10:57;3.28;;;1.50;;
57635;SDS011;43465;50.728;4.160;2023-08-12T09:13:26;2.40;;;1.60;;
57635;SDS011;43465;50.728;4.160;2023-08-12T09:15:53;4.65;;;1.88;;
57635;SDS011;43465;50.728;4.160;2023-08-12T09:18:19;4.35;;;1.73;;
57635;SDS011;43465;50.728;4.160;2023-08-12T09:20:49;4.88;;;2.05;;
57635;SDS011;43465;50.728;4.160;2023-08-12T09:23:18;5.75;;;1.80;;
57635;SDS011;43465;50.728;4.160;2023-08-12T09:25:44;2.80;;;1.75;;
57635;SDS011;43465;50.728;4.160;2023-08-12T09:28:11;1.58;;;1.38;;
57635;SDS011;43465;50.728;4.160;2023-08-12T09:30:38;3.47;;;1.67;;
57635;SDS011;43465;50.728;4.160;2023-08-12T09:33:04;3.60;;;1.77;;
57635;SDS011;43465;50.728;4.160;2023-08-12T09:35:35;5.60;;;1.70;;
57635;SDS011;43465;50.728;4.160;2023-08-12T09:38:06;3.60;;;1.88;;
57635;SDS011;43465;50.728;4.160;2023-08-12T09:40:34;5.35;;;1.80;;
57635;SDS011;43465;50.728;4.160;2023-08-12T09:43:00;4.32;;;1.52;;
57635;SDS011;43465;50.728;4.160;2023-08-12T09:45:27;4.47;;;1.60;;
57635;SDS011;43465;50.728;4.160;2023-08-12T09:47:53;4.28;;;1.50;;
57635;SDS011;43465;50.728;4.160;2023-08-12T09:50:23;4.40;;;1.70;;
57635;SDS011;43465;50.728;4.160;2023-08-12T09:52:50;6.00;;;1.75;;
57635;SDS011;43465;50.728;4.160;2023-08-12T09:55:17;6.47;;;1.65;;
57635;SDS011;43465;50.728;4.160;2023-08-12T09:57:43;6.22;;;1.67;;
57635;SDS011;43465;50.728;4.160;2023-08-12T10:00:12;3.85;;;1.60;;
57635;SDS011;43465;50.728;4.160;2023-08-12T10:02:42;4.93;;;1.80;;
57635;SDS011;43465;50.728;4.160;2023-08-12T10:05:09;5.32;;;1.83;;
57635;SDS011;43465;50.728;4.160;2023-08-12T10:07:38;3.88;;;1.67;;
57635;SDS011;43465;50.728;4.160;2023-08-12T10:10:05;6.18;;;2.10;;
57635;SDS011;43465;50.728;4.160;2023-08-12T10:12:32;5.82;;;2.45;;
57635;SDS011;43465;50.728;4.160;2023-08-12T10:14:58;6.72;;;2.20;;
57635;SDS011;43465;50.728;4.160;2023-08-12T10:17:25;6.50;;;2.20;;
57635;SDS011;43465;50.728;4.160;2023-08-12T10:19:58;6.40;;;2.33;;
57635;SDS011;43465;50.728;4.160;2023-08-12T10:22:26;7.32;;;1.95;;
57635;SDS011;43465;50.728;4.160;2023-08-12T10:24:54;8.45;;;2.05;;
57635;SDS011;43465;50.728;4.160;2023-08-12T10:27:19;7.55;;;2.05;;
57635;SDS011;43465;50.728;4.160;2023-08-12T10:29:46;5.70;;;1.50;;
57635;SDS011;43465;50.728;4.160;2023-08-12T10:32:12;6.22;;;2.00;;
57635;SDS011;43465;50.728;4.160;2023-08-12T10:34:39;4.28;;;1.73;;
57635;SDS011;43465;50.728;4.160;2023-08-12T10:37:04;3.38;;;1.63;;
57635;SDS011;43465;50.728;4.160;2023-08-12T10:39:32;5.20;;;1.85;;
57635;SDS011;43465;50.728;4.160;2023-08-12T10:41:58;4.78;;;1.67;;
57635;SDS011;43465;50.728;4.160;2023-08-12T10:44:38;6.22;;;1.67;;
57635;SDS011;43465;50.728;4.160;2023-08-12T10:47:07;5.82;;;1.67;;
57635;SDS011;43465;50.728;4.160;2023-08-12T10:49:38;6.38;;;2.00;;
57635;SDS011;43465;50.728;4.160;2023-08-12T10:54:44;4.75;;;1.83;;
57635;SDS011;43465;50.728;4.160;2023-08-12T10:57:11;5.95;;;1.90;;
57635;SDS011;43465;50.728;4.160;2023-08-12T11:02:19;7.10;;;2.00;;
57635;SDS011;43465;50.728;4.160;2023-08-12T11:04:57;4.82;;;2.15;;
57635;SDS011;43465;50.728;4.160;2023-08-12T11:07:32;3.75;;;2.20;;
57635;SDS011;43465;50.728;4.160;2023-08-12T11:10:19;5.95;;;2.30;;
57635;SDS011;43465;50.728;4.160;2023-08-12T11:15:33;8.95;;;2.60;;
57635;SDS011;43465;50.728;4.160;2023-08-12T11:17:59;6.05;;;2.75;;
57635;SDS011;43465;50.728;4.160;2023-08-12T11:20:28;8.30;;;3.90;;
57635;SDS011;43465;50.728;4.160;2023-08-12T11:22:54;7.45;;;3.67;;
57635;SDS011;43465;50.728;4.160;2023-08-12T11:25:21;5.55;;;3.65;;
57635;SDS011;43465;50.728;4.160;2023-08-12T11:27:47;6.05;;;3.70;;
57635;SDS011;43465;50.728;4.160;2023-08-12T11:30:14;6.20;;;3.67;;
57635;SDS011;43465;50.728;4.160;2023-08-12T11:32:47;7.05;;;3.55;;
57635;SDS011;43465;50.728;4.160;2023-08-12T11:35:15;6.05;;;3.58;;
57635;SDS011;43465;50.728;4.160;2023-08-12T11:37:42;8.77;;;4.03;;
57635;SDS011;43465;50.728;4.160;2023-08-12T11:40:10;8.25;;;3.65;;
57635;SDS011;43465;50.728;4.160;2023-08-12T11:42:39;5.60;;;3.13;;
57635;SDS011;43465;50.728;4.160;2023-08-12T11:45:06;7.97;;;3.15;;
57635;SDS011;43465;50.728;4.160;2023-08-12T11:47:33;7.18;;;2.85;;
57635;SDS011;43465;50.728;4.160;2023-08-12T11:50:06;5.25;;;2.40;;
57635;SDS011;43465;50.728;4.160;2023-08-12T11:52:34;3.95;;;2.75;;
57635;SDS011;43465;50.728;4.160;2023-08-12T11:55:03;7.97;;;3.00;;
57635;SDS011;43465;50.728;4.160;2023-08-12T11:57:30;6.13;;;2.60;;
57635;SDS011;43465;50.728;4.160;2023-08-12T11:59:59;6.18;;;2.65;;
57635;SDS011;43465;50.728;4.160;2023-08-12T12:02:27;4.88;;;2.35;;
57635;SDS011;43465;50.728;4.160;2023-08-12T12:04:53;3.13;;;2.03;;
57635;SDS011;43465;50.728;4.160;2023-08-12T12:07:20;4.65;;;1.88;;
57635;SDS011;43465;50.728;4.160;2023-08-12T12:09:46;3.55;;;1.80;;
57635;SDS011;43465;50.728;4.160;2023-08-12T12:12:15;5.95;;;1.85;;
57635;SDS011;43465;50.728;4.160;2023-08-12T12:14:42;5.57;;;2.15;;
57635;SDS011;43465;50.728;4.160;2023-08-12T12:17:08;4.95;;;2.03;;
57635;SDS011;43465;50.728;4.160;2023-08-12T12:19:39;6.93;;;1.80;;
57635;SDS011;43465;50.728;4.160;2023-08-12T12:22:05;2.85;;;1.55;;
57635;SDS011;43465;50.728;4.160;2023-08-12T12:24:31;5.38;;;1.88;;
57635;SDS011;43465;50.728;4.160;2023-08-12T12:27:09;7.40;;;1.75;;
57635;SDS011;43465;50.728;4.160;2023-08-12T12:29:36;3.47;;;1.75;;
57635;SDS011;43465;50.728;4.160;2023-08-12T12:32:02;3.78;;;1.67;;
57635;SDS011;43465;50.728;4.160;2023-08-12T12:34:27;3.97;;;1.95;;
57635;SDS011;43465;50.728;4.160;2023-08-12T12:36:53;5.38;;;1.75;;
57635;SDS011;43465;50.728;4.160;2023-08-12T12:39:18;3.38;;;1.77;;
57635;SDS011;43465;50.728;4.160;2023-08-12T12:41:44;5.70;;;1.90;;
57635;SDS011;43465;50.728;4.160;2023-08-12T12:44:10;4.63;;;1.77;;
57635;SDS011;43465;50.728;4.160;2023-08-12T12:46:35;4.68;;;1.40;;
57635;SDS011;43465;50.728;4.160;2023-08-12T12:49:01;8.02;;;1.83;;
57635;SDS011;43465;50.728;4.160;2023-08-12T12:51:28;4.00;;;1.73;;
57635;SDS011;43465;50.728;4.160;2023-08-12T12:53:53;3.78;;;1.88;;
57635;SDS011;43465;50.728;4.160;2023-08-12T12:56:19;4.88;;;1.63;;
57635;SDS011;43465;50.728;4.160;2023-08-12T12:58:45;4.35;;;1.73;;
57635;SDS011;43465;50.728;4.160;2023-08-12T13:01:10;4.80;;;1.90;;
57635;SDS011;43465;50.728;4.160;2023-08-12T13:03:36;8.15;;;2.08;;
57635;SDS011;43465;50.728;4.160;2023-08-12T13:06:02;6.05;;;1.70;;
57635;SDS011;43465;50.728;4.160;2023-08-12T13:08:28;4.95;;;1.70;;
57635;SDS011;43465;50.728;4.160;2023-08-12T13:10:55;7.43;;;1.73;;
57635;SDS011;43465;50.728;4.160;2023-08-12T13:13:21;5.00;;;1.90;;
57635;SDS011;43465;50.728;4.160;2023-08-12T13:15:47;2.58;;;1.58;;
57635;SDS011;43465;50.728;4.160;2023-08-12T13:18:12;3.22;;;1.45;;
57635;SDS011;43465;50.728;4.160;2023-08-12T13:20:38;4.22;;;1.50;;
57635;SDS011;43465;50.728;4.160;2023-08-12T13:23:04;6.45;;;2.10;;
57635;SDS011;43465;50.728;4.160;2023-08-12T13:25:30;8.48;;;1.80;;
57635;SDS011;43465;50.728;4.160;2023-08-12T13:27:58;3.90;;;1.70;;
57635;SDS011;43465;50.728;4.160;2023-08-12T13:30:24;5.32;;;1.70;;
57635;SDS011;43465;50.728;4.160;2023-08-12T13:32:50;4.50;;;1.90;;
57635;SDS011;43465;50.728;4.160;2023-08-12T13:35:16;5.47;;;1.52;;
57635;SDS011;43465;50.728;4.160;2023-08-12T13:37:42;3.20;;;1.50;;
57635;SDS011;43465;50.728;4.160;2023-08-12T13:40:08;6.22;;;1.77;;
57635;SDS011;43465;50.728;4.160;2023-08-12T13:42:34;7.15;;;2.05;;
57635;SDS011;43465;50.728;4.160;2023-08-12T13:45:00;3.83;;;1.58;;
57635;SDS011;43465;50.728;4.160;2023-08-12T13:47:26;3.97;;;1.90;;
57635;SDS011;43465;50.728;4.160;2023-08-12T13:49:51;4.82;;;1.50;;
57635;SDS011;43465;50.728;4.160;2023-08-12T13:52:17;4.50;;;1.58;;
57635;SDS011;43465;50.728;4.160;2023-08-12T13:54:42;6.18;;;1.98;;
57635;SDS011;43465;50.728;4.160;2023-08-12T13:57:08;4.47;;;1.60;;
57635;SDS011;43465;50.728;4.160;2023-08-12T13:59:34;5.47;;;1.73;;
57635;SDS011;43465;50.728;4.160;2023-08-12T14:01:59;8.02;;;1.95;;
57635;SDS011;43465;50.728;4.160;2023-08-12T14:04:25;7.13;;;1.75;;
57635;SDS011;43465;50.728;4.160;2023-08-12T14:06:50;5.55;;;1.75;;
57635;SDS011;43465;50.728;4.160;2023-08-12T14:09:17;5.97;;;1.58;;
57635;SDS011;43465;50.728;4.160;2023-08-12T14:11:44;4.45;;;1.50;;
57635;SDS011;43465;50.728;4.160;2023-08-12T14:14:10;4.32;;;1.77;;
57635;SDS011;43465;50.728;4.160;2023-08-12T14:16:36;3.83;;;1.40;;
57635;SDS011;43465;50.728;4.160;2023-08-12T14:19:02;6.30;;;1.52;;
57635;SDS011;43465;50.728;4.160;2023-08-12T14:21:27;4.78;;;1.67;;
57635;SDS011;43465;50.728;4.160;2023-08-12T14:23:53;4.63;;;1.50;;
57635;SDS011;43465;50.728;4.160;2023-08-12T14:26:19;4.57;;;1.90;;
57635;SDS011;43465;50.728;4.160;2023-08-12T14:28:44;6.43;;;1.90;;
57635;SDS011;43465;50.728;4.160;2023-08-12T14:31:10;7.90;;;1.85;;
57635;SDS011;43465;50.728;4.160;2023-08-12T14:33:35;4.80;;;1.70;;
57635;SDS011;43465;50.728;4.160;2023-08-12T14:36:02;5.97;;;1.90;;
57635;SDS011;43465;50.728;4.160;2023-08-12T14:38:28;5.50;;;2.10;;
57635;SDS011;43465;50.728;4.160;2023-08-12T14:40:54;5.32;;;1.80;;
57635;SDS011;43465;50.728;4.160;2023-08-12T14:43:19;6.35;;;1.80;;
57635;SDS011;43465;50.728;4.160;2023-08-12T14:45:45;5.28;;;1.90;;
57635;SDS011;43465;50.728;4.160;2023-08-12T14:48:11;5.63;;;2.05;;